Time;durP1;ratioP1;P1;durP2;ratioP2;P2;SDS_P1;SDS_P2;PMS_P1;PMS_P2;Temp;Humidity;BMP_temperature;BMP_pressure;BME280_temperature;BME280_humidity;BME280_pressure;Samples;Min_cycle;Max_cycle;Signal;HPM_P1;HPM_P2
2021/05/16 00:00:25;;;;;;;10.08;8.18;;;;;;;14.18;63.32;99794.58;1649265;86;28637;-74
2021/05/16 00:02:55;;;;;;;12.53;9.05;;;;;;;14.18;63.85;99796.47;1685232;83;25684;-74
2021/05/16 00:05:25;;;;;;;12.50;8.75;;;;;;;14.14;64.20;99788.53;1661388;85;25869;-74
2021/05/16 00:07:52;;;;;;;12.28;9.03;;;;;;;14.07;64.47;99790.52;1714127;82;26274;-74
2021/05/16 00:10:23;;;;;;;10.93;8.38;;;;;;;13.96;64.69;99793.46;1661219;83;25707;-74
2021/05/16 00:12:51;;;;;;;11.47;9.77;;;;;;;13.89;65.26;99794.06;1676123;84;27635;-75
2021/05/16 00:15:21;;;;;;;14.20;9.75;;;;;;;13.76;65.66;99796.41;1706970;83;25265;-75
2021/05/16 00:17:49;;;;;;;12.98;9.90;;;;;;;13.61;66.02;99785.22;1682011;84;25734;-74
2021/05/16 00:20:20;;;;;;;14.43;9.48;;;;;;;13.56;66.19;99783.72;1651773;83;25735;-73
2021/05/16 00:22:48;;;;;;;12.63;10.03;;;;;;;13.56;66.84;99776.98;1689470;82;26625;-74
2021/05/16 00:25:17;;;;;;;14.93;10.13;;;;;;;13.52;66.66;99776.31;1676806;83;27981;-74
2021/05/16 00:27:45;;;;;;;11.90;9.75;;;;;;;13.56;67.32;99774.81;1640953;84;26645;-73
2021/05/16 00:30:16;;;;;;;12.70;9.78;;;;;;;13.58;67.41;99767.37;1647885;83;26406;-74
2021/05/16 00:32:45;;;;;;;14.73;9.85;;;;;;;13.56;67.58;99762.19;1703317;83;25843;-75
2021/05/16 00:35:16;;;;;;;13.43;9.53;;;;;;;13.56;67.43;99769.43;1718029;82;25749;-74
2021/05/16 00:37:43;;;;;;;11.22;8.88;;;;;;;13.58;67.86;99759.30;1641154;82;27289;-74
2021/05/16 00:40:12;;;;;;;15.45;9.55;;;;;;;13.59;68.12;99752.33;1703110;82;26426;-75
2021/05/16 00:42:39;;;;;;;12.13;9.25;;;;;;;13.60;68.12;99748.58;1652141;82;25752;-74
2021/05/16 00:45:17;;;;;;;10.70;9.13;;;;;;;13.60;68.18;99746.44;1711626;82;26376;-73
2021/05/16 00:47:51;;;;;;;12.07;9.55;;;;;;;13.60;68.69;99741.84;1677875;82;25796;-75
2021/05/16 00:50:21;;;;;;;13.43;9.85;;;;;;;13.58;68.76;99735.88;1661702;84;27381;-75
2021/05/16 00:52:49;;;;;;;10.38;9.30;;;;;;;13.52;69.08;99730.58;1678995;82;27110;-75
2021/05/16 00:55:18;;;;;;;10.55;9.45;;;;;;;13.42;69.24;99722.23;1703085;82;26329;-75
2021/05/16 00:57:46;;;;;;;12.35;9.55;;;;;;;13.39;69.33;99714.08;1644267;83;25799;-75
2021/05/16 01:00:39;;;;;;;12.43;9.53;;;;;;;13.34;69.45;99709.92;1661329;82;26084;-75
2021/05/16 01:03:04;;;;;;;10.78;9.38;;;;;;;13.32;69.78;99717.91;1673240;84;32623;-75
2021/05/16 01:05:32;;;;;;;13.32;9.15;;;;;;;13.25;70.04;99709.92;1708608;82;25740;-75
2021/05/16 01:07:59;;;;;;;15.10;10.20;;;;;;;13.21;70.10;99702.53;1654092;83;25662;-74
2021/05/16 01:10:26;;;;;;;11.18;9.08;;;;;;;13.15;70.44;99694.30;1663284;85;26529;-74
2021/05/16 01:12:55;;;;;;;14.65;9.80;;;;;;;13.14;70.69;99697.23;1691457;82;25603;-74
2021/05/16 01:15:28;;;;;;;11.10;9.58;;;;;;;13.13;70.56;99689.68;1713636;82;27453;-74
2021/05/16 01:17:56;;;;;;;13.53;10.28;;;;;;;13.07;70.78;99682.52;1668829;84;25770;-75
2021/05/16 01:20:32;;;;;;;13.20;10.28;;;;;;;13.02;70.92;99686.36;1671083;82;25788;-75
2021/05/16 01:23:06;;;;;;;10.30;8.88;;;;;;;13.02;71.16;99680.98;1707680;82;26256;-75
2021/05/16 01:25:39;;;;;;;12.75;9.40;;;;;;;13.01;71.46;99678.02;1704902;82;25514;-74
2021/05/16 01:28:09;;;;;;;10.55;9.48;;;;;;;12.95;71.79;99673.54;1657563;82;27344;-74
2021/05/16 01:30:36;;;;;;;13.75;9.83;;;;;;;12.88;72.02;99668.75;1644925;83;25798;-75
2021/05/16 01:33:05;;;;;;;13.10;9.60;;;;;;;12.85;72.31;99665.70;1716957;82;25644;-74
2021/05/16 01:35:34;;;;;;;12.73;9.35;;;;;;;12.83;72.29;99668.59;1700774;82;26360;-75
2021/05/16 01:38:04;;;;;;;13.28;10.40;;;;;;;12.84;72.36;99670.25;1687037;83;26482;-73
2021/05/16 01:40:32;;;;;;;13.03;10.03;;;;;;;12.86;72.44;99667.33;1682742;82;27438;-75
2021/05/16 01:43:02;;;;;;;13.93;10.18;;;;;;;12.88;72.70;99667.41;1677725;83;25814;-74
2021/05/16 01:45:29;;;;;;;12.73;9.40;;;;;;;12.88;72.70;99660.69;1701370;82;26219;-74
2021/05/16 01:47:58;;;;;;;13.55;10.50;;;;;;;12.90;72.74;99659.11;1632484;85;26501;-74
2021/05/16 01:50:30;;;;;;;12.50;10.58;;;;;;;12.92;72.78;99659.70;1663333;84;26325;-75
2021/05/16 01:53:00;;;;;;;11.53;10.10;;;;;;;12.95;72.96;99664.13;1663323;84;27461;-74
2021/05/16 01:55:27;;;;;;;12.00;10.55;;;;;;;12.96;73.05;99663.07;1722705;82;25877;-74
2021/05/16 01:57:57;;;;;;;12.03;10.15;;;;;;;12.95;73.08;99657.41;1643693;83;25625;-75
2021/05/16 02:00:35;;;;;;;12.18;10.93;;;;;;;12.97;73.00;99666.59;1667617;82;25822;-73
2021/05/16 02:03:04;;;;;;;10.80;9.70;;;;;;;12.99;73.02;99655.08;1681800;82;25729;-75
2021/05/16 02:05:34;;;;;;;13.40;10.48;;;;;;;12.99;73.18;99661.29;1682952;82;27972;-75
2021/05/16 02:08:05;;;;;;;12.37;11.18;;;;;;;12.99;73.06;99657.77;1649663;82;25778;-74
2021/05/16 02:10:33;;;;;;;;;;;;;;;13.00;73.23;99660.77;1665901;82;25786;-74
2021/05/16 02:13:02;;;;;;;11.97;9.93;;;;;;;13.02;73.39;99664.05;1707634;82;25858;-75
2021/05/16 02:15:31;;;;;;;12.00;10.55;;;;;;;13.00;73.32;99660.77;1675487;82;26085;-74
2021/05/16 02:18:00;;;;;;;13.55;10.90;;;;;;;12.99;73.32;99661.29;1656717;82;27408;-74
2021/05/16 02:20:29;;;;;;;13.32;11.03;;;;;;;13.00;73.30;99662.12;1633319;83;25958;-75
2021/05/16 02:22:56;;;;;;;14.68;11.97;;;;;;;12.99;73.17;99666.66;1696273;82;26355;-74
2021/05/16 02:25:24;;;;;;;12.78;11.03;;;;;;;13.02;73.24;99655.99;1662158;83;25688;-74
2021/05/16 02:27:51;;;;;;;14.80;12.00;;;;;;;13.03;73.35;99660.30;1631310;85;25707;-74
2021/05/16 02:30:20;;;;;;;16.60;11.97;;;;;;;13.04;73.42;99661.96;1615519;85;27466;-74
2021/05/16 02:32:47;;;;;;;15.05;13.00;;;;;;;13.03;73.35;99657.61;1708533;82;26149;-75
2021/05/16 02:35:15;;;;;;;15.90;13.95;;;;;;;13.03;73.33;99658.45;1663082;85;26267;-75
2021/05/16 02:37:47;;;;;;;15.13;13.03;;;;;;;13.04;73.67;99650.69;1663801;83;26029;-75
2021/05/16 02:40:15;;;;;;;16.45;13.75;;;;;;;12.99;73.61;99657.77;1645287;85;25664;-74
2021/05/16 02:42:42;;;;;;;16.87;14.63;;;;;;;12.94;73.72;99658.95;1691454;83;27487;-74
2021/05/16 02:45:13;;;;;;;15.90;14.05;;;;;;;12.93;73.87;99666.22;1664106;83;25780;-74
2021/05/16 02:47:40;;;;;;;16.25;13.90;;;;;;;12.91;74.10;99656.73;1658518;82;25630;-75
2021/05/16 02:50:11;;;;;;;15.72;13.30;;;;;;;12.86;74.02;99661.44;1665313;83;25879;-73
2021/05/16 02:52:43;;;;;;;19.80;15.43;;;;;;;12.86;74.33;99660.09;1709131;82;26473;-75
2021/05/16 02:55:12;;;;;;;16.90;15.13;;;;;;;12.83;74.26;99663.77;1657339;84;27348;-74
2021/05/16 02:57:40;;;;;;;17.67;15.80;;;;;;;12.80;74.37;99664.20;1649439;83;25698;-75
2021/05/16 03:00:11;;;;;;;18.92;16.35;;;;;;;12.79;74.47;99664.71;1658486;85;25850;-74
2021/05/16 03:02:38;;;;;;;17.30;15.50;;;;;;;12.80;74.62;99667.71;1700905;83;26431;-75
2021/05/16 03:05:07;;;;;;;19.85;17.67;;;;;;;12.83;74.60;99671.28;1676556;82;25705;-75
2021/05/16 03:07:35;;;;;;;19.52;17.40;;;;;;;12.84;74.67;99672.94;1659420;82;27470;-74
2021/05/16 03:10:03;;;;;;;18.62;16.62;;;;;;;12.85;74.88;99675.11;1677077;82;25811;-75
2021/05/16 03:12:30;;;;;;;18.25;16.42;;;;;;;12.87;74.98;99674.36;1709698;82;25652;-74
2021/05/16 03:14:57;;;;;;;18.62;16.25;;;;;;;12.86;75.03;99672.70;1682992;82;25749;-74
2021/05/16 03:17:26;;;;;;;18.62;16.25;;;;;;;12.90;75.10;99677.92;1680537;82;25636;-74
2021/05/16 03:19:53;;;;;;;17.62;14.45;;;;;;;12.92;75.10;99683.90;1672267;82;27520;-75
2021/05/16 03:22:21;;;;;;;16.97;14.00;;;;;;;12.94;75.04;99685.84;1664683;83;25731;-75
2021/05/16 03:24:49;;;;;;;15.65;13.62;;;;;;;12.97;75.14;99685.41;1708712;82;25670;-74
2021/05/16 03:27:16;;;;;;;14.93;13.10;;;;;;;12.99;75.12;99686.83;1672095;83;26363;-75
2021/05/16 03:29:43;;;;;;;14.73;12.47;;;;;;;13.03;75.10;99683.16;1649408;84;26014;-75
2021/05/16 03:32:10;;;;;;;15.83;13.03;;;;;;;13.05;75.19;99694.53;1710749;82;27530;-75
2021/05/16 03:34:37;;;;;;;16.15;12.43;;;;;;;13.07;75.10;99689.23;1678736;82;26265;-74
2021/05/16 03:37:04;;;;;;;15.58;13.13;;;;;;;13.07;75.31;99689.23;1643542;83;25562;-74
2021/05/16 03:39:31;;;;;;;13.15;11.80;;;;;;;13.10;75.30;99688.80;1683835;84;26482;-75
2021/05/16 03:41:58;;;;;;;13.22;11.80;;;;;;;13.12;75.34;99687.22;1706074;82;25263;-74
2021/05/16 03:44:25;;;;;;;14.83;13.08;;;;;;;13.12;75.54;99683.19;1684490;82;27481;-74
2021/05/16 03:46:53;;;;;;;15.72;13.93;;;;;;;13.07;75.67;99678.48;1632275;83;26472;-74
2021/05/16 03:49:20;;;;;;;14.93;13.08;;;;;;;13.02;75.77;99688.25;1652262;85;25307;-74
2021/05/16 03:51:48;;;;;;;15.78;13.30;;;;;;;13.01;75.87;99698.69;1691709;83;26482;-74
2021/05/16 03:54:15;;;;;;;14.53;13.03;;;;;;;13.03;76.01;99695.25;1650378;84;25720;-75
2021/05/16 03:56:43;;;;;;;15.15;13.55;;;;;;;13.05;76.07;99699.40;1634940;85;28014;-74
2021/05/16 03:59:10;;;;;;;19.67;14.10;;;;;;;13.08;76.15;99705.69;1691581;83;25698;-75
2021/05/16 04:01:37;;;;;;;15.63;13.53;;;;;;;13.11;76.25;99728.59;1691586;83;25778;-74
2021/05/16 04:04:05;;;;;;;17.05;13.20;;;;;;;13.08;76.21;99711.58;1649596;84;25797;-75
2021/05/16 04:06:32;;;;;;;15.15;12.25;;;;;;;13.07;76.24;99713.95;1629106;83;25688;-74
2021/05/16 04:08:59;;;;;;;15.20;12.60;;;;;;;13.07;76.29;99708.58;1690933;83;27454;-75
2021/05/16 04:11:26;;;;;;;14.63;12.80;;;;;;;13.04;76.41;99699.08;1673207;84;26591;-75
2021/05/16 04:13:53;;;;;;;16.55;13.15;;;;;;;13.05;76.45;99695.87;1655089;83;25770;-74
2021/05/16 04:16:20;;;;;;;16.57;13.25;;;;;;;13.09;76.61;99691.70;1634717;84;25728;-74
2021/05/16 04:18:47;;;;;;;17.55;13.88;;;;;;;13.12;76.58;99688.05;1628385;85;26005;-75
2021/05/16 04:21:14;;;;;;;14.80;13.25;;;;;;;13.15;76.47;99677.38;1697209;83;27570;-75
2021/05/16 04:23:41;;;;;;;17.40;13.65;;;;;;;13.19;76.62;99675.05;1655147;84;25749;-75
2021/05/16 04:26:08;;;;;;;16.80;15.03;;;;;;;13.23;76.56;99671.68;1670719;83;25801;-75
2021/05/16 04:28:35;;;;;;;20.25;13.93;;;;;;;13.29;76.38;99677.50;1671456;84;26335;-73
2021/05/16 04:31:02;;;;;;;16.85;13.93;;;;;;;13.31;76.45;99667.33;1650460;85;25700;-75
2021/05/16 04:33:29;;;;;;;18.00;14.53;;;;;;;13.35;76.53;99659.61;1620462;85;27488;-74
2021/05/16 04:35:58;;;;;;;18.32;13.65;;;;;;;13.38;76.41;99660.00;1626649;84;26520;-75
2021/05/16 04:38:25;;;;;;;18.98;13.22;;;;;;;13.39;76.68;99652.21;1676210;84;25544;-75
2021/05/16 04:40:52;;;;;;;14.98;12.65;;;;;;;13.41;76.58;99652.01;1681273;84;25866;-74
2021/05/16 04:43:19;;;;;;;13.20;11.48;;;;;;;13.42;76.77;99642.87;1649138;83;25742;-74
2021/05/16 04:45:47;;;;;;;14.45;11.83;;;;;;;13.42;76.72;99636.97;1661351;82;27518;-74
2021/05/16 04:48:14;;;;;;;12.88;11.55;;;;;;;13.42;76.78;99638.84;1658748;85;25719;-75
2021/05/16 04:50:41;;;;;;;15.08;12.93;;;;;;;13.42;76.97;99644.22;1694639;82;26311;-74
2021/05/16 04:53:08;;;;;;;13.48;12.10;;;;;;;13.44;77.06;99640.25;1664436;82;25931;-75
2021/05/16 04:55:35;;;;;;;14.05;11.43;;;;;;;13.50;77.27;99640.69;1647401;84;25636;-74
2021/05/16 04:58:02;;;;;;;16.27;10.78;;;;;;;13.54;77.46;99643.72;1664950;84;27494;-74
2021/05/16 05:00:29;;;;;;;13.70;12.07;;;;;;;13.54;77.01;99645.90;1655867;85;25801;-76
2021/05/16 05:02:58;;;;;;;15.72;12.05;;;;;;;13.57;77.18;99646.80;1610822;86;25740;-75
2021/05/16 05:05:25;;;;;;;14.98;12.50;;;;;;;13.63;77.06;99651.78;1672194;84;25772;-75
2021/05/16 05:07:52;;;;;;;12.78;11.28;;;;;;;13.71;77.18;99655.48;1644007;85;26620;-74
2021/05/16 05:10:19;;;;;;;15.35;11.00;;;;;;;13.76;77.10;99651.06;1652964;85;27579;-74
2021/05/16 05:12:46;;;;;;;9.33;8.20;;;;;;;13.82;77.03;99657.39;1661413;82;25650;-75
2021/05/16 05:15:13;;;;;;;9.38;8.30;;;;;;;13.87;76.98;99650.80;1682806;82;25829;-74
2021/05/16 05:17:43;;;;;;;6.62;6.03;;;;;;;13.90;76.88;99645.77;1676134;84;25895;-75
2021/05/16 05:20:11;;;;;;;6.53;5.12;;;;;;;13.94;76.48;99648.83;1698442;82;25609;-75
2021/05/16 05:22:38;;;;;;;5.17;4.67;;;;;;;14.00;76.27;99655.16;1588844;85;27484;-74
2021/05/16 05:25:07;;;;;;;5.33;4.58;;;;;;;14.06;75.97;99659.09;1650408;85;26583;-75
2021/05/16 05:27:34;;;;;;;4.62;4.20;;;;;;;14.13;75.96;99660.33;1662196;85;26548;-74
2021/05/16 05:30:02;;;;;;;4.90;4.20;;;;;;;14.20;75.76;99656.45;1664339;85;26364;-74
2021/05/16 05:32:29;;;;;;;7.67;4.17;;;;;;;14.26;75.74;99656.90;1629583;85;25655;-75
2021/05/16 05:34:56;;;;;;;6.35;4.53;;;;;;;14.34;75.79;99651.70;1618798;86;28163;-75
2021/05/16 05:37:23;;;;;;;4.37;3.98;;;;;;;14.41;75.62;99653.77;1647326;85;25695;-74
2021/05/16 05:39:50;;;;;;;4.33;3.92;;;;;;;14.48;75.32;99646.36;1643338;85;25728;-75
2021/05/16 05:42:17;;;;;;;5.62;4.72;;;;;;;14.57;75.27;99644.96;1666549;84;26497;-74
2021/05/16 05:44:44;;;;;;;4.65;3.80;;;;;;;14.66;75.23;99644.38;1659803;82;25589;-75
2021/05/16 05:47:11;;;;;;;4.92;3.60;;;;;;;14.77;75.34;99643.24;1673376;84;28165;-75
2021/05/16 05:49:38;;;;;;;4.10;3.67;;;;;;;14.89;74.93;99644.86;1698805;82;25289;-75
2021/05/16 05:52:05;;;;;;;3.83;3.25;;;;;;;14.98;74.44;99650.18;1640438;84;25716;-75
2021/05/16 05:54:34;;;;;;;4.70;3.85;;;;;;;15.19;74.74;99641.97;1645609;84;25730;-74
2021/05/16 05:57:01;;;;;;;4.40;3.98;;;;;;;15.39;74.46;99642.37;1682410;83;25652;-74
2021/05/16 05:59:28;;;;;;;3.75;3.30;;;;;;;15.55;73.98;99638.91;1698260;82;26861;-75
2021/05/16 06:01:55;;;;;;;4.05;3.45;;;;;;;15.67;73.83;99632.95;1651206;83;25773;-75
2021/05/16 06:04:22;;;;;;;5.67;3.77;;;;;;;15.84;73.71;99629.73;1654366;83;25739;-75
2021/05/16 06:06:50;;;;;;;4.40;3.80;;;;;;;16.04;73.73;99633.28;1690941;82;25889;-74
2021/05/16 06:09:17;;;;;;;5.10;3.70;;;;;;;16.23;72.55;99630.09;1707351;82;26380;-75
2021/05/16 06:11:44;;;;;;;4.00;3.70;;;;;;;16.36;72.34;99628.93;1686511;82;28123;-74
2021/05/16 06:14:11;;;;;;;2.95;2.75;;;;;;;16.48;72.14;99628.84;1661111;82;25736;-75
2021/05/16 06:16:38;;;;;;;4.08;3.65;;;;;;;16.66;71.45;99632.11;1719310;82;26432;-74
2021/05/16 06:19:05;;;;;;;5.83;3.02;;;;;;;16.76;71.45;99633.62;1713246;82;26367;-75
2021/05/16 06:21:32;;;;;;;4.30;3.67;;;;;;;16.86;71.31;99629.69;1679104;82;25613;-75
2021/05/16 06:24:07;;;;;;;8.10;4.95;;;;;;;16.98;70.79;99631.72;1659992;83;28131;-74
2021/05/16 06:26:39;;;;;;;5.53;3.75;;;;;;;17.05;70.62;99621.24;1709497;82;26359;-75
2021/05/16 06:29:07;;;;;;;5.33;4.03;;;;;;;17.04;69.87;99633.98;1693992;83;25774;-75
2021/05/16 06:31:35;;;;;;;5.45;4.30;;;;;;;17.01;69.46;99632.29;1655864;82;26364;-75
2021/05/16 06:34:02;;;;;;;4.50;4.10;;;;;;;16.96;69.34;99637.09;1629033;83;25762;-75
2021/05/16 06:36:30;;;;;;;5.22;4.67;;;;;;;16.94;69.28;99637.89;1701952;83;28029;-74
2021/05/16 06:38:57;;;;;;;6.75;4.35;;;;;;;16.94;69.01;99632.47;1681235;82;26473;-75
2021/05/16 06:41:25;;;;;;;5.15;3.80;;;;;;;16.93;68.92;99635.73;1682449;82;26238;-75
2021/05/16 06:43:53;;;;;;;6.62;3.95;;;;;;;16.95;68.77;99639.01;1654819;82;25706;-75
2021/05/16 06:46:21;;;;;;;4.85;3.72;;;;;;;16.95;68.51;99631.42;1712663;82;25671;-78
2021/05/16 06:48:48;;;;;;;5.15;3.98;;;;;;;16.92;68.31;99635.44;1702960;82;28422;-74
2021/05/16 06:51:15;;;;;;;4.40;3.80;;;;;;;16.90;68.20;99625.41;1642060;83;25728;-74
2021/05/16 06:53:42;;;;;;;4.20;3.85;;;;;;;16.88;68.33;99630.25;1653606;82;26215;-75
2021/05/16 06:56:12;;;;;;;4.22;3.80;;;;;;;16.85;67.86;99631.30;1695317;83;25732;-73
2021/05/16 06:58:38;;;;;;;4.78;3.90;;;;;;;16.84;67.99;99628.30;1684088;82;25925;-74
2021/05/16 07:01:05;;;;;;;4.92;3.83;;;;;;;16.83;67.77;99626.13;1681234;83;28111;-75
2021/05/16 07:03:35;;;;;;;4.10;3.70;;;;;;;16.92;68.01;99619.73;1620997;83;25757;-75
2021/05/16 07:06:02;;;;;;;4.62;3.52;;;;;;;17.07;68.04;99612.34;1692769;82;25629;-74
2021/05/16 07:08:31;;;;;;;4.00;3.58;;;;;;;17.23;67.84;99620.41;1720616;82;26445;-76
2021/05/16 07:10:59;;;;;;;4.45;3.92;;;;;;;17.36;68.25;99613.77;1670362;82;25671;-76
2021/05/16 07:13:25;;;;;;;5.45;4.15;;;;;;;17.49;67.75;99618.23;1642255;82;27418;-76
2021/05/16 07:15:52;;;;;;;3.85;3.47;;;;;;;17.63;67.33;99615.97;1675897;83;25790;-77
2021/05/16 07:18:20;;;;;;;3.85;3.40;;;;;;;17.71;66.91;99614.97;1663366;82;25736;-75
2021/05/16 07:20:47;;;;;;;3.75;3.45;;;;;;;17.80;66.71;99612.61;1723041;82;25762;-75
2021/05/16 07:23:14;;;;;;;3.80;3.47;;;;;;;17.89;66.41;99611.60;1694067;83;25654;-75
2021/05/16 07:25:41;;;;;;;6.72;3.80;;;;;;;17.99;66.35;99617.92;1663145;83;28148;-75
2021/05/16 07:28:08;;;;;;;5.47;2.95;;;;;;;18.07;66.09;99616.64;1643021;84;25845;-76
2021/05/16 07:30:35;;;;;;;4.65;2.83;;;;;;;18.15;65.82;99619.70;1659017;82;25700;-75
2021/05/16 07:33:02;;;;;;;3.87;3.00;;;;;;;18.26;64.90;99620.02;1700140;83;25802;-75
2021/05/16 07:35:29;;;;;;;4.08;2.80;;;;;;;18.38;64.29;99620.67;1669419;84;25698;-75
2021/05/16 07:37:56;;;;;;;3.25;2.72;;;;;;;18.52;64.51;99612.11;1669013;82;27944;-75
2021/05/16 07:40:23;;;;;;;3.85;3.08;;;;;;;18.64;64.11;99607.29;1668161;82;26524;-74
2021/05/16 07:42:50;;;;;;;4.55;2.60;;;;;;;18.74;63.63;99606.80;1697276;83;25594;-76
2021/05/16 07:45:19;;;;;;;3.27;2.40;;;;;;;18.84;63.18;99601.41;1658890;84;25942;-75
2021/05/16 07:47:46;;;;;;;4.03;2.70;;;;;;;18.95;62.28;99598.20;1643302;82;25788;-76
2021/05/16 07:50:14;;;;;;;4.42;2.85;;;;;;;19.06;62.96;99597.98;1650676;84;27520;-75
2021/05/16 07:52:41;;;;;;;3.37;2.75;;;;;;;19.10;61.87;99595.55;1679329;84;25647;-74
2021/05/16 07:55:10;;;;;;;3.08;2.77;;;;;;;19.14;61.73;99592.04;1677457;83;25679;-74
2021/05/16 07:57:37;;;;;;;2.98;2.70;;;;;;;19.22;61.50;99596.15;1658928;82;25959;-75
2021/05/16 08:00:10;;;;;;;3.22;2.67;;;;;;;19.28;61.01;99592.89;1653292;85;25690;-76
2021/05/16 08:02:41;;;;;;;4.90;2.65;;;;;;;19.33;61.10;99591.03;1705813;82;27522;-73
2021/05/16 08:05:10;;;;;;;2.90;2.60;;;;;;;19.39;60.60;99591.88;1678588;82;25870;-74
2021/05/16 08:07:37;;;;;;;3.08;2.62;;;;;;;19.46;61.05;99581.58;1639523;82;26117;-73
2021/05/16 08:10:06;;;;;;;2.70;2.50;;;;;;;19.50;59.74;99586.73;1672145;82;26688;-74
2021/05/16 08:12:34;;;;;;;3.62;3.20;;;;;;;19.51;59.79;99581.56;1701542;83;25579;-76
2021/05/16 08:15:01;;;;;;;3.65;3.25;;;;;;;19.61;60.35;99584.31;1677056;84;27375;-75
2021/05/16 08:17:28;;;;;;;3.37;3.08;;;;;;;19.68;60.72;99576.16;1640870;84;26316;-76
2021/05/16 08:19:55;;;;;;;5.62;4.53;;;;;;;19.78;60.48;99576.72;1655944;82;26335;-76
2021/05/16 08:22:22;;;;;;;6.55;4.03;;;;;;;19.87;60.34;99579.15;1700654;82;26445;-75
2021/05/16 08:24:49;;;;;;;4.95;4.28;;;;;;;19.92;60.62;99577.80;1663316;84;25687;-76
2021/05/16 08:27:16;;;;;;;5.42;4.53;;;;;;;19.92;60.77;99576.44;1651644;84;28170;-75
2021/05/16 08:29:45;;;;;;;5.15;4.65;;;;;;;19.93;60.92;99574.80;1647623;85;25795;-75
2021/05/16 08:32:13;;;;;;;6.10;4.95;;;;;;;19.93;61.02;99575.37;1683667;83;26045;-76
2021/05/16 08:34:41;;;;;;;7.28;6.05;;;;;;;19.90;61.07;99574.00;1690299;84;26362;-75
2021/05/16 08:37:10;;;;;;;9.75;6.30;;;;;;;19.89;61.51;99566.09;1625760;84;25766;-76
2021/05/16 08:39:38;;;;;;;7.80;6.28;;;;;;;19.93;61.81;99572.08;1685518;83;27549;-76
2021/05/16 08:42:06;;;;;;;6.78;5.80;;;;;;;19.88;61.45;99568.56;1686813;84;25694;-75
2021/05/16 08:44:34;;;;;;;5.33;4.83;;;;;;;19.90;61.61;99566.38;1663154;83;25786;-75
2021/05/16 08:47:03;;;;;;;6.03;4.90;;;;;;;20.00;61.56;99564.48;1661741;82;25905;-75
2021/05/16 08:49:30;;;;;;;7.37;5.40;;;;;;;20.10;61.33;99565.56;1663778;83;25749;-76
2021/05/16 08:51:57;;;;;;;5.62;5.12;;;;;;;20.19;61.57;99569.37;1687090;83;28186;-76
2021/05/16 08:54:26;;;;;;;7.22;4.70;;;;;;;20.20;60.61;99571.84;1644001;83;25716;-75
2021/05/16 08:56:55;;;;;;;5.50;4.83;;;;;;;20.13;59.92;99571.26;1652015;83;26428;-76
2021/05/16 08:59:24;;;;;;;5.17;4.67;;;;;;;20.09;59.48;99566.64;1658308;83;26367;-76
2021/05/16 09:01:53;;;;;;;4.50;4.10;;;;;;;20.03;60.18;99567.20;1708896;83;25706;-76
2021/05/16 09:04:34;;;;;;;5.35;4.10;;;;;;;19.97;60.22;99569.66;1677931;84;27912;-76
2021/05/16 09:07:01;;;;;;;5.83;4.83;;;;;;;19.91;59.58;99567.47;1652868;83;25883;-75
2021/05/16 09:09:39;;;;;;;7.50;5.55;;;;;;;19.87;59.79;99563.66;1657659;82;25806;-76
2021/05/16 09:12:15;;;;;;;7.78;5.22;;;;;;;19.85;59.79;99563.12;1692991;83;25814;-75
2021/05/16 09:14:52;;;;;;;6.05;4.65;;;;;;;19.82;59.69;99563.66;1669115;84;25704;-75
2021/05/16 09:17:36;;;;;;;5.40;4.00;;;;;;;19.86;59.40;99557.15;1659904;84;27482;-75
2021/05/16 09:20:12;;;;;;;3.77;3.30;;;;;;;19.96;60.07;99557.95;1652443;83;25777;-76
2021/05/16 09:22:46;;;;;;;5.80;3.83;;;;;;;20.03;59.00;99557.69;1695007;82;25725;-75
2021/05/16 09:25:21;;;;;;;7.20;3.92;;;;;;;20.09;58.86;99561.20;1666362;82;25756;-76
2021/05/16 09:27:52;;;;;;;3.90;3.20;;;;;;;20.10;58.40;99561.48;1668933;82;25365;-76
2021/05/16 09:30:24;;;;;;;5.03;4.00;;;;;;;20.10;58.52;99558.77;1670202;84;28014;-75
2021/05/16 09:33:04;;;;;;;4.08;3.67;;;;;;;20.09;58.24;99561.20;1694571;84;25741;-75
2021/05/16 09:35:42;;;;;;;4.35;3.45;;;;;;;20.10;58.12;99560.13;1675150;82;25728;-76
2021/05/16 09:38:13;;;;;;;4.33;3.80;;;;;;;20.12;58.12;99557.95;1692060;84;26607;-76
2021/05/16 09:40:51;;;;;;;4.47;3.80;;;;;;;20.16;58.06;99563.10;1671021;82;25924;-76
2021/05/16 09:43:26;;;;;;;7.12;4.47;;;;;;;20.22;57.95;99552.52;1691871;82;28289;-75
2021/05/16 09:46:01;;;;;;;4.97;3.80;;;;;;;20.26;57.76;99551.70;1672830;82;26534;-75
2021/05/16 09:48:36;;;;;;;4.10;3.30;;;;;;;20.33;57.79;99547.33;1686362;82;25815;-76
2021/05/16 09:51:25;;;;;;;4.08;3.67;;;;;;;20.49;58.08;99544.83;1666627;84;25813;-75
2021/05/16 09:54:05;;;;;;;3.58;3.27;;;;;;;20.51;56.79;99538.56;1684792;82;25726;-76
2021/05/16 09:56:46;;;;;;;3.98;3.67;;;;;;;20.48;56.87;99529.08;1659920;84;28014;-76
2021/05/16 09:59:11;;;;;;;4.90;3.65;;;;;;;20.52;56.69;99523.34;1654584;82;25774;-76
2021/05/16 10:01:39;;;;;;;5.62;3.83;;;;;;;20.63;56.42;99513.23;1656603;82;25805;-76
2021/05/16 10:04:08;;;;;;;3.95;3.30;;;;;;;20.79;57.18;99507.98;1685344;82;25735;-77
2021/05/16 10:06:35;;;;;;;4.00;2.92;;;;;;;20.97;56.03;99513.34;1595818;85;25706;-76
2021/05/16 10:09:04;;;;;;;3.60;3.30;;;;;;;21.09;56.17;99511.11;1589567;85;27415;-76
2021/05/16 10:11:32;;;;;;;4.72;3.62;;;;;;;21.27;56.05;99510.47;1619251;85;25728;-76
2021/05/16 10:14:12;;;;;;;5.55;3.98;;;;;;;21.34;54.83;99506.88;1641333;85;25739;-76
2021/05/16 10:16:42;;;;;;;;;;;;;;;21.27;53.94;99500.94;1624941;85;25646;-75
2021/05/16 10:19:20;;;;;;;4.22;3.92;;;;;;;21.05;54.10;99497.80;1630144;85;25794;-74
2021/05/16 10:22:16;;;;;;;5.30;4.47;;;;;;;20.87;54.47;99492.41;1639405;85;27509;-74
2021/05/16 10:24:49;;;;;;;5.33;4.10;;;;;;;20.72;54.57;99491.16;1672001;84;26428;-75
2021/05/16 10:27:21;;;;;;;5.90;4.35;;;;;;;20.49;54.76;99489.05;1647413;84;25818;-75
2021/05/16 10:30:01;;;;;;;5.25;4.37;;;;;;;20.34;54.77;99487.75;1644345;85;25862;-74
2021/05/16 10:32:38;;;;;;;5.53;3.95;;;;;;;20.22;55.00;99489.97;1655650;84;25762;-75
2021/05/16 10:35:11;;;;;;;9.18;3.83;;;;;;;20.08;55.69;99493.77;1638554;85;27698;-74
2021/05/16 10:37:54;;;;;;;7.45;4.30;;;;;;;19.99;55.99;99505.75;1634624;86;25912;-74
2021/05/16 10:40:35;;;;;;;6.22;4.20;;;;;;;19.91;56.50;99517.18;1609700;85;25698;-74
2021/05/16 10:43:05;;;;;;;4.53;4.12;;;;;;;19.77;56.26;99517.48;1609789;85;25895;-75
2021/05/16 10:45:40;;;;;;;6.67;4.40;;;;;;;19.65;56.20;99526.99;1617890;85;25696;-75
2021/05/16 10:48:17;;;;;;;8.60;3.75;;;;;;;19.53;56.55;99544.08;1599935;85;27326;-74
2021/05/16 10:50:54;;;;;;;3.45;3.00;;;;;;;19.27;57.80;99550.55;1659578;84;25694;-75
2021/05/16 10:53:30;;;;;;;7.15;3.83;;;;;;;18.77;58.88;99556.09;1667336;85;25665;-74
2021/05/16 10:56:13;;;;;;;9.23;2.92;;;;;;;18.30;60.18;99549.32;1640331;84;25955;-75
2021/05/16 10:58:49;;;;;;;7.55;3.25;;;;;;;17.83;60.71;99559.28;1701887;83;26050;-75
2021/05/16 11:01:35;;;;;;;5.17;3.37;;;;;;;17.39;61.54;99569.94;1681731;82;27226;-74
2021/05/16 11:04:05;;;;;;;8.18;3.72;;;;;;;17.22;62.33;99579.52;1726927;82;25890;-75
2021/05/16 11:06:46;;;;;;;4.40;3.33;;;;;;;17.19;63.29;99573.27;1694119;82;25760;-74
2021/05/16 11:09:16;;;;;;;6.62;3.80;;;;;;;17.21;63.81;99578.42;1718937;82;26440;-75
2021/05/16 11:11:53;;;;;;;6.40;3.43;;;;;;;17.24;64.86;99580.07;1667909;83;25723;-75
2021/05/16 11:14:27;;;;;;;10.20;3.30;;;;;;;17.26;65.47;99579.28;1726533;82;28117;-75
2021/05/16 11:17:07;;;;;;;7.70;3.25;;;;;;;17.21;65.49;99582.48;1704326;82;25954;-74
2021/05/16 11:19:36;;;;;;;6.60;3.33;;;;;;;17.22;65.94;99567.33;1685142;82;26371;-74
2021/05/16 11:22:12;;;;;;;6.67;2.87;;;;;;;17.24;66.35;99567.06;1671519;82;26365;-74
2021/05/16 11:24:47;;;;;;;6.70;2.47;;;;;;;17.26;66.26;99561.69;1721148;82;25726;-74
2021/05/16 11:27:23;;;;;;;6.28;2.45;;;;;;;17.20;66.39;99553.23;1706757;82;27977;-75
2021/05/16 11:29:53;;;;;;;5.45;2.52;;;;;;;17.22;66.30;99545.68;1699833;83;25940;-75
2021/05/16 11:32:28;;;;;;;3.37;2.27;;;;;;;17.24;66.44;99543.53;1672279;83;26366;-73
2021/05/16 11:35:15;;;;;;;2.92;2.60;;;;;;;17.27;66.86;99541.69;1698609;83;26481;-75
2021/05/16 11:37:46;;;;;;;3.98;2.30;;;;;;;17.27;66.89;99540.86;1685629;82;25774;-74